Virtual LH

Virtual LH. There's no better way to fly
Since 2013.



AIRPORT MAP

METAR AND TAF INFORMATION

METAR FOR EPWR
ADDS - METARS form results

(0119 UTC 23 July 2019)
Data provider http://aviationweather.gov/metar/data/
 
METAR text: EPWR 230100Z 23003KT 9999 -RA BKN028 18/16 Q1022
Conditions at: EPWR (WROCLAW/STRACHOW, PL) observed 0100 UTC 23 July 2019
Temperature: 18.0°C (64°F)
Dewpoint: 16.0°C (61°F) [RH = 88%]
Pressure (altimeter): 30.18 inches Hg (1022.0 mb)
Winds: from the SW (230 degrees) at 3 MPH (3 knots; 1.5 m/s)
Visibility: 6 or more miles (10+ km)
Ceiling: 2800 feet AGL
Clouds: broken clouds at 2800 feet AGL
Weather: -RA  (light rain)

METAR text: EPWR 230030Z 26001KT 9999 -RA FEW023 BKN035 18/16 Q1022
Conditions at: EPWR (WROCLAW/STRACHOW, PL) observed 0030 UTC 23 July 2019
Temperature: 18.0°C (64°F)
Dewpoint: 16.0°C (61°F) [RH = 88%]
Pressure (altimeter): 30.18 inches Hg (1022.0 mb)
Winds: from the W (260 degrees) at 1 MPH (1 knots; 0.5 m/s)
Visibility: 6 or more miles (10+ km)
Ceiling: 3500 feet AGL
Clouds: few clouds at 2300 feet AGL
broken clouds at 3500 feet AGL
Weather: -RA  (light rain)

Forecast for: EPWR (WROCLAW/STRACHOW, PL)
Text: TAF EPWR 222330Z 2300/2324 33005KT 9999 -RA OVC040
Forecast period: 0000 UTC 23 July 2019 to 0000 UTC 24 July 2019
Forecast type: FROM: standard forecast or significant change
Winds: from the NNW (330 degrees) at 6 MPH (5 knots; 2.6 m/s)
Visibility: 6 or more miles 10+ km)
Ceiling: 4000 feet AGL
Clouds: overcast cloud deck at 4000 feet AGL
Weather: -RA  (light rain)
Text: TEMPO 2300/2308 BKN014
Forecast period: 0000 to 0800 UTC 23 July 2019
Forecast type: TEMPORARY: The following changes expected for less than half the time period
Visibility: missing
Ceiling: 1400 feet AGL
Clouds: broken clouds at 1400 feet AGL
Weather: no significant weather forecast for this period
Text: PROB30
Forecast period: 0300 to 0600 UTC 23 July 2019
Forecast type: TEMPORARY: The following changes expected for less than half the time period
Visibility: 2.49 miles (4.01 km)
Ceiling: 900 feet AGL
Clouds: broken clouds at 900 feet AGL
Weather: RA  (moderate rain)

RUNWAY INFORMATION

Runway 12 Runway length 8202 ft Runway width 197 ft
Runway elevation 404 ft Runway displaced threshold 0 ft Runway heading 116
Runway 30 Runway length 8202 ft Runway width 197 ft
Runway elevation 400 ft Runway displaced threshold 0 ft Runway heading 296

AIRPORT FREQUENCIES

Type TWR Name WROCLAW TW Frequency 127.225 MHZ

AIRPORT NEAR NAVIGATION AIDS

Type NDB Name Wroclaw Frequency 255 KHZ
Type NDB Name Wroclaw Frequency 525 KHZ
Type VOR-DME Name Trzebnica Frequency 113600 KHZ